KAVL/AVL METAR and TAF weather

Enter ICAO airport designator
Station Type Date Time Source
KAVL METAR 2019/12/08 18:54 UTC NOAA

KAVL 081854Z 14009G16KT 10SM CLR 08/M03 A3028 RMK AO2 SLP254 T00781033


Station Type Date Time Source
KAVL Decoded METAR 2019/12/08 18:54 UTC NOAA

ASHEVILLE REGIONAL AIRPORT, NC, United States (KAVL) 35-26N 82-32W 670M
Dec 08, 2019 - 01:54 PM EST / 2019.12.08 1854 UTC
Wind: from the SE (140 degrees) at 10 MPH (9 KT) gusting to 18 MPH (16 KT):0
Visibility: 10 mile(s):0
Sky conditions: clear
Temperature: 46.0 F (7.8 C)
Dew Point: 26.1 F (-3.3 C)
Relative Humidity: 45%
Pressure (altimeter): 30.28 in. Hg (1025 hPa)
ob: KAVL 081854Z 14009G16KT 10SM CLR 08/M03 A3028 RMK AO2 SLP254 T00781033
cycle: 19

Station Type Date Time Source
KAVL TAF 2019/12/08 18:48 UTC NOAA

TAF KAVL 081745Z 0818/0918 17009KT P6SM SCT040 BKN250
FM090000 17005KT P6SM OVC040 PROB30 0906/0909 4SM -RA BR OVC025
FM090900 16003KT P6SM VCSH OVC024 WS020/19035KT PROB30 0910/0913 4SM -RA BR OVC015
FM091300 17004KT 5SM -RA BR OVC015 WS020/20040KT
FM091600 17007KT 5SM -RA BR OVC008 WS020/21045KT

Example: see airport list